Time;durP1;ratioP1;P1;durP2;ratioP2;P2;SDS_P1;SDS_P2;PMS_P1;PMS_P2;Temp;Humidity;BMP_temperature;BMP_pressure;BME280_temperature;BME280_humidity;BME280_pressure;Samples;Min_cycle;Max_cycle;Signal;HPM_P1;HPM_P2
2024/01/28 00:02:15;;;;;;;11.97;5.60;;;;;;;13.48;39.02;103346.94;5051171;28;20495;-75
2024/01/28 00:04:40;;;;;;;10.97;5.50;;;;;;;13.49;39.67;103347.81;5052276;28;20029;-74
2024/01/28 00:07:06;;;;;;;12.43;5.57;;;;;;;13.38;40.02;103343.28;5052843;28;20035;-75
2024/01/28 00:09:31;;;;;;;20.40;6.40;;;;;;;13.19;39.24;103330.63;5051750;28;20025;-75
2024/01/28 00:11:56;;;;;;;16.57;6.10;;;;;;;13.14;39.43;103327.03;5051177;28;20484;-75
2024/01/28 00:14:22;;;;;;;11.40;5.37;;;;;;;13.05;39.79;103326.00;5052481;28;20111;-75
2024/01/28 00:16:48;;;;;;;18.70;6.87;;;;;;;13.01;39.75;103326.78;5052368;28;20049;-75
2024/01/28 00:19:14;;;;;;;14.27;5.50;;;;;;;12.97;39.80;103324.97;5051793;28;20025;-75
2024/01/28 00:21:39;;;;;;;14.93;6.23;;;;;;;12.80;40.11;103331.59;5047197;28;20497;-75
2024/01/28 00:24:06;;;;;;;11.53;5.37;;;;;;;12.68;40.40;103322.63;5040447;28;20471;-75
2024/01/28 00:26:37;;;;;;;15.47;5.20;;;;;;;12.59;40.33;103318.94;5046758;28;20042;-74
2024/01/28 00:29:02;;;;;;;11.30;5.57;;;;;;;12.82;40.17;103319.41;5034329;28;20037;-75
2024/01/28 00:31:27;;;;;;;10.70;5.87;;;;;;;12.68;40.56;103317.38;5050199;28;20040;-75
2024/01/28 00:33:53;;;;;;;17.57;5.57;;;;;;;13.12;39.73;103318.22;5050653;28;20463;-75
2024/01/28 00:36:18;;;;;;;17.73;6.50;;;;;;;13.59;38.50;103310.34;5051043;28;20035;-75
2024/01/28 00:38:44;;;;;;;22.13;6.47;;;;;;;13.36;38.72;103308.19;5051060;28;20025;-75
2024/01/28 00:41:29;;;;;;;17.03;6.23;;;;;;;13.02;39.90;103302.31;5050813;28;20106;-75
2024/01/28 00:43:55;;;;;;;13.10;6.00;;;;;;;12.95;39.77;103289.91;5050289;28;20432;-75
2024/01/28 00:46:22;;;;;;;10.80;5.60;;;;;;;13.22;39.14;103286.91;5049806;28;20025;-74
2024/01/28 00:48:48;;;;;;;18.07;6.60;;;;;;;13.34;39.00;103291.50;5051472;28;20052;-75
2024/01/28 00:51:13;;;;;;;13.83;6.77;;;;;;;13.10;38.96;103288.44;5050309;28;20445;-75
2024/01/28 00:53:39;;;;;;;17.00;6.33;;;;;;;12.50;40.13;103285.50;5050409;28;20431;-75
2024/01/28 00:56:04;;;;;;;9.47;5.37;;;;;;;12.78;40.01;103286.09;5050536;28;20365;-75
2024/01/28 00:58:30;;;;;;;21.13;6.50;;;;;;;11.87;40.95;103284.97;5050067;28;20098;-75
2024/01/28 01:00:55;;;;;;;12.23;6.23;;;;;;;12.18;41.26;103288.31;5050934;28;20503;-75
2024/01/28 01:03:21;;;;;;;15.63;6.27;;;;;;;12.33;41.10;103278.16;5050262;28;20032;-75
2024/01/28 01:05:46;;;;;;;10.90;5.60;;;;;;;12.01;41.57;103285.31;5049880;28;20043;-75
2024/01/28 01:08:12;;;;;;;10.77;6.07;;;;;;;12.76;39.73;103282.53;5049843;28;20024;-75
2024/01/28 01:10:37;;;;;;;14.80;6.67;;;;;;;12.35;40.62;103291.31;5046433;28;20095;-75
2024/01/28 01:13:03;;;;;;;14.83;6.63;;;;;;;12.87;39.56;103288.88;5036800;28;20028;-75
2024/01/28 01:15:32;;;;;;;13.97;4.80;;;;;;;12.29;40.40;103285.94;5050558;28;20645;-75
2024/01/28 01:17:57;;;;;;;14.87;5.97;;;;;;;12.70;39.84;103278.06;5051540;28;20456;-76
2024/01/28 01:20:23;;;;;;;22.03;5.63;;;;;;;12.50;40.34;103275.00;5051618;28;20067;-75
2024/01/28 01:22:49;;;;;;;14.87;5.73;;;;;;;12.57;39.98;103274.31;5045892;28;20054;-75
2024/01/28 01:25:14;;;;;;;9.27;5.40;;;;;;;12.83;39.80;103260.78;5043359;28;20040;-76
2024/01/28 01:27:45;;;;;;;12.70;6.27;;;;;;;12.73;39.55;103258.00;5050321;28;20029;-75
2024/01/28 01:30:11;;;;;;;14.10;5.47;;;;;;;12.55;40.06;103242.75;5049596;28;20387;-75
2024/01/28 01:32:40;;;;;;;19.13;6.47;;;;;;;12.23;39.89;103244.75;5050631;28;20028;-74
2024/01/28 01:35:07;;;;;;;21.73;7.80;;;;;;;12.43;39.87;103244.25;5050936;28;20016;-75
2024/01/28 01:37:32;;;;;;;18.37;7.30;;;;;;;12.14;40.17;103241.91;5050653;28;20083;-76
2024/01/28 01:39:58;;;;;;;25.90;6.80;;;;;;;11.74;41.23;103235.75;5049910;28;20021;-75
2024/01/28 01:42:23;;;;;;;16.67;5.57;;;;;;;11.91;40.84;103241.34;5050447;28;20036;-75
2024/01/28 01:44:49;;;;;;;15.70;6.27;;;;;;;12.13;40.43;103232.25;5048945;28;20033;-75
2024/01/28 01:47:14;;;;;;;10.97;5.13;;;;;;;11.31;41.20;103233.84;5050419;28;20107;-75
2024/01/28 01:49:39;;;;;;;12.73;6.30;;;;;;;11.19;42.48;103236.16;5048664;28;20118;-75
2024/01/28 01:52:06;;;;;;;11.73;5.83;;;;;;;11.31;41.93;103236.47;5049861;28;20558;-75
2024/01/28 01:54:32;;;;;;;13.10;5.50;;;;;;;11.33;41.61;103219.06;5049912;28;20389;-75
2024/01/28 01:56:58;;;;;;;17.93;6.00;;;;;;;11.95;40.51;103210.06;5048824;28;20031;-75
2024/01/28 01:59:24;;;;;;;18.97;6.00;;;;;;;11.31;42.15;103228.59;5050669;28;20104;-75
2024/01/28 02:01:51;;;;;;;14.83;6.13;;;;;;;11.21;42.24;103231.84;5050106;28;20033;-75
2024/01/28 02:04:16;;;;;;;15.10;5.83;;;;;;;11.73;41.68;103206.00;5049014;28;20029;-75
2024/01/28 02:06:42;;;;;;;9.37;5.90;;;;;;;11.42;41.50;103212.28;5049094;28;20051;-75
2024/01/28 02:09:07;;;;;;;14.40;5.97;;;;;;;10.79;42.92;103216.78;5049363;28;20424;-75
2024/01/28 02:11:33;;;;;;;14.90;4.63;;;;;;;11.43;41.65;103211.41;5048652;28;20535;-74
2024/01/28 02:13:58;;;;;;;20.20;5.90;;;;;;;12.08;39.84;103213.81;5046335;28;20033;-75
2024/01/28 02:16:25;;;;;;;17.53;6.53;;;;;;;11.49;41.84;103219.44;5047299;28;20037;-75
2024/01/28 02:18:51;;;;;;;17.13;5.90;;;;;;;11.40;41.33;103213.97;5049731;28;20048;-75
2024/01/28 02:21:16;;;;;;;17.80;5.83;;;;;;;11.96;40.44;103214.44;5049002;28;20113;-75
2024/01/28 02:23:42;;;;;;;10.80;5.93;;;;;;;11.75;41.01;103214.81;5049107;28;20017;-74
2024/01/28 02:26:07;;;;;;;11.20;5.17;;;;;;;11.25;41.95;103218.00;5048463;28;20500;-75
2024/01/28 02:28:33;;;;;;;18.67;6.23;;;;;;;10.66;42.99;103223.38;5049943;28;20029;-75
2024/01/28 02:30:58;;;;;;;11.63;4.77;;;;;;;10.30;43.68;103217.16;5048121;28;20024;-75
2024/01/28 02:33:23;;;;;;;15.97;5.40;;;;;;;10.76;42.98;103221.94;5048909;28;20050;-75
2024/01/28 02:35:49;;;;;;;13.67;5.80;;;;;;;10.67;43.37;103213.00;5045247;28;20048;-74
2024/01/28 02:38:14;;;;;;;13.17;5.37;;;;;;;10.30;44.02;103206.69;5045670;28;20343;-74
2024/01/28 02:40:40;;;;;;;18.17;5.80;;;;;;;10.41;43.59;103206.13;5047992;28;20028;-75
2024/01/28 02:43:06;;;;;;;12.83;5.43;;;;;;;10.34;43.22;103208.59;5048674;28;20385;-75
2024/01/28 02:45:31;;;;;;;14.77;6.33;;;;;;;10.80;42.82;103211.59;5048011;28;20059;-75
2024/01/28 02:47:57;;;;;;;16.77;5.93;;;;;;;11.51;41.61;103204.63;5050194;28;20029;-75
2024/01/28 02:50:22;;;;;;;9.13;4.97;;;;;;;11.01;42.39;103211.25;5049519;28;20056;-75
2024/01/28 02:52:48;;;;;;;11.70;5.73;;;;;;;11.25;42.22;103204.91;5047335;28;20566;-75
2024/01/28 02:55:13;;;;;;;14.87;6.03;;;;;;;11.85;40.76;103194.94;5049040;28;20508;-75
2024/01/28 02:57:39;;;;;;;23.47;6.50;;;;;;;11.62;40.63;103200.56;5064498;28;20067;-75
2024/01/28 03:00:06;;;;;;;12.53;5.97;;;;;;;11.51;41.71;103194.16;5048235;28;20036;-75
2024/01/28 03:02:31;;;;;;;18.97;6.73;;;;;;;10.84;42.62;103204.72;5049838;28;20034;-76
2024/01/28 03:04:57;;;;;;;11.33;5.67;;;;;;;11.29;41.94;103188.41;5049844;28;20108;-75
2024/01/28 03:07:22;;;;;;;15.30;5.90;;;;;;;11.73;41.18;103181.56;5050130;28;20032;-75
2024/01/28 03:09:48;;;;;;;14.17;5.80;;;;;;;11.07;42.20;103176.50;5051941;28;20193;-75
2024/01/28 03:12:13;;;;;;;9.73;4.73;;;;;;;11.08;42.44;103170.44;5053471;28;20029;-75
2024/01/28 03:14:38;;;;;;;13.93;5.70;;;;;;;11.44;41.74;103160.81;5051266;28;20029;-75
2024/01/28 03:17:04;;;;;;;9.47;5.80;;;;;;;10.98;41.97;103161.47;5052252;28;20036;-75
2024/01/28 03:19:29;;;;;;;12.07;5.53;;;;;;;10.79;42.69;103156.59;5052146;28;20082;-75
2024/01/28 03:21:55;;;;;;;12.03;4.93;;;;;;;10.42;44.25;103156.50;5048192;28;20029;-75
2024/01/28 03:24:20;;;;;;;26.73;7.30;;;;;;;9.91;44.25;103143.69;5052597;28;20385;-75
2024/01/28 03:26:45;;;;;;;15.27;5.50;;;;;;;10.22;44.12;103152.41;5053077;28;20085;-75
2024/01/28 03:29:11;;;;;;;15.07;5.90;;;;;;;10.60;42.96;103147.38;5051877;28;20036;-75
2024/01/28 03:31:38;;;;;;;15.50;5.67;;;;;;;10.11;44.36;103141.63;5051511;28;20534;-76
2024/01/28 03:34:04;;;;;;;11.97;5.37;;;;;;;10.99;42.18;103142.31;5051899;28;20040;-75
2024/01/28 03:36:29;;;;;;;10.93;5.50;;;;;;;10.54;43.00;103150.72;5052367;28;20029;-75
2024/01/28 03:38:54;;;;;;;15.93;6.07;;;;;;;10.50;43.27;103156.72;5051785;28;20043;-76
2024/01/28 03:41:20;;;;;;;12.80;6.87;;;;;;;10.69;42.76;103153.75;5052763;28;20029;-75
2024/01/28 03:43:48;;;;;;;19.00;5.57;;;;;;;11.16;41.59;103149.69;5047686;28;20029;-75
2024/01/28 03:46:14;;;;;;;17.53;6.67;;;;;;;10.59;42.77;103151.75;5033694;28;20037;-76
2024/01/28 03:48:39;;;;;;;10.63;5.33;;;;;;;11.36;41.18;103147.53;5032890;28;20075;-75
2024/01/28 03:51:06;;;;;;;22.33;6.70;;;;;;;10.77;41.86;103160.91;5032360;28;20146;-75
2024/01/28 03:53:31;;;;;;;18.97;6.07;;;;;;;10.66;43.11;103153.66;5052030;28;20025;-75
2024/01/28 03:55:58;;;;;;;22.80;6.47;;;;;;;10.92;42.48;103148.25;5051284;28;20499;-75
2024/01/28 03:58:23;;;;;;;10.10;5.50;;;;;;;10.63;41.92;103153.59;5051525;28;20056;-75
2024/01/28 04:00:48;;;;;;;13.17;5.57;;;;;;;10.13;42.87;103146.06;5051441;28;20439;-75
2024/01/28 04:03:14;;;;;;;18.30;6.23;;;;;;;9.60;44.61;103148.88;5052267;28;20033;-75
2024/01/28 04:05:39;;;;;;;16.17;5.37;;;;;;;10.20;43.66;103136.69;5050881;28;20060;-75
2024/01/28 04:08:11;;;;;;;18.73;5.20;;;;;;;10.23;43.54;103144.59;5051652;28;20024;-75
2024/01/28 04:10:36;;;;;;;15.25;6.65;;;;;;;9.94;43.50;103144.66;5050241;28;20067;-75
2024/01/28 04:13:02;;;;;;;11.33;5.87;;;;;;;10.59;42.87;103145.59;5051684;28;20071;-75
2024/01/28 04:15:27;;;;;;;20.30;6.30;;;;;;;10.11;43.28;103141.63;5051560;28;20120;-75
2024/01/28 04:17:53;;;;;;;11.27;4.90;;;;;;;10.90;41.87;103141.19;5049379;28;20029;-75
2024/01/28 04:20:18;;;;;;;12.47;4.93;;;;;;;10.40;42.88;103149.44;5051267;28;20131;-75
2024/01/28 04:22:43;;;;;;;17.47;6.30;;;;;;;10.31;43.46;103145.69;5050216;28;20021;-75
2024/01/28 04:25:09;;;;;;;10.07;4.80;;;;;;;10.17;42.73;103137.47;5050637;28;20057;-75
2024/01/28 04:27:35;;;;;;;9.27;4.77;;;;;;;9.96;43.97;103140.38;5044974;28;20025;-75
2024/01/28 04:30:00;;;;;;;13.03;5.57;;;;;;;10.28;42.67;103139.53;5044815;28;20063;-75
2024/01/28 04:32:25;;;;;;;14.87;5.20;;;;;;;9.16;45.26;103124.84;5051898;28;20029;-75
2024/01/28 04:34:51;;;;;;;18.33;5.27;;;;;;;9.41;44.98;103112.56;5047210;28;20280;-75
2024/01/28 04:37:16;;;;;;;13.13;4.43;;;;;;;10.15;42.72;103112.13;5048979;28;20051;-76
2024/01/28 04:39:42;;;;;;;11.83;5.40;;;;;;;10.20;43.11;103110.53;5051307;28;20124;-75
2024/01/28 04:42:07;;;;;;;8.23;5.47;;;;;;;9.89;43.83;103106.16;5050660;28;20119;-75
2024/01/28 04:44:32;;;;;;;17.57;5.07;;;;;;;10.19;42.59;103106.16;5049975;28;20136;-75
2024/01/28 04:46:58;;;;;;;9.90;5.67;;;;;;;10.47;41.76;103104.34;5049676;28;20029;-75
2024/01/28 04:49:24;;;;;;;12.03;4.70;;;;;;;9.71;43.94;103112.59;5051958;28;20397;-74
2024/01/28 04:51:50;;;;;;;16.63;6.17;;;;;;;9.57;43.75;103108.72;5048878;28;20029;-75
2024/01/28 04:54:16;;;;;;;8.50;4.27;;;;;;;9.27;44.08;103093.88;5050656;28;20021;-76
2024/01/28 04:56:42;;;;;;;10.27;5.20;;;;;;;9.85;43.68;103087.81;5051652;28;20094;-76
2024/01/28 04:59:07;;;;;;;14.77;5.37;;;;;;;10.08;43.58;103079.72;5050037;28;20025;-75
2024/01/28 05:01:33;;;;;;;16.93;6.27;;;;;;;9.91;43.75;103091.44;5051131;28;20036;-75
2024/01/28 05:04:01;;;;;;;17.53;5.77;;;;;;;10.39;42.81;103090.19;5050151;28;20530;-75
2024/01/28 05:06:34;;;;;;;15.47;5.23;;;;;;;10.36;42.29;103080.53;5049712;28;20043;-75
2024/01/28 05:09:03;;;;;;;18.97;5.60;;;;;;;10.20;42.73;103087.03;5051975;28;20037;-75
2024/01/28 05:11:31;;;;;;;9.80;5.17;;;;;;;10.59;42.40;103078.50;5051428;28;20084;-74
2024/01/28 05:14:00;;;;;;;11.97;5.63;;;;;;;11.03;41.03;103060.41;5051071;28;20098;-74
2024/01/28 05:16:25;;;;;;;16.77;7.03;;;;;;;9.73;43.50;103070.91;5050146;28;20082;-75
2024/01/28 05:18:51;;;;;;;15.67;6.83;;;;;;;9.74;43.59;103067.41;5049156;28;20029;-75
2024/01/28 05:21:18;;;;;;;12.73;4.97;;;;;;;10.32;42.40;103062.94;5050186;28;20048;-75
2024/01/28 05:23:44;;;;;;;13.13;5.67;;;;;;;10.49;42.02;103055.56;5051078;28;20025;-75
2024/01/28 05:26:09;;;;;;;9.77;4.07;;;;;;;10.06;42.31;103054.41;5050170;28;20024;-75
2024/01/28 05:28:35;;;;;;;12.17;5.60;;;;;;;10.66;42.09;103051.66;5048786;28;20017;-75
2024/01/28 05:31:00;;;;;;;14.70;5.47;;;;;;;10.52;41.91;103045.19;5050808;28;20028;-75
2024/01/28 05:33:25;;;;;;;14.20;5.73;;;;;;;10.15;42.51;103049.41;5050977;28;20036;-75
2024/01/28 05:35:51;;;;;;;16.20;6.53;;;;;;;10.07;42.94;103043.09;5049036;28;20101;-75
2024/01/28 05:38:16;;;;;;;14.63;5.50;;;;;;;9.92;43.42;103048.78;5049669;28;20029;-75
2024/01/28 05:40:42;;;;;;;12.83;5.47;;;;;;;10.08;43.19;103048.34;5049725;28;20032;-75
2024/01/28 05:43:07;;;;;;;13.53;5.83;;;;;;;10.18;43.36;103026.00;5048618;28;20067;-75
2024/01/28 05:45:33;;;;;;;9.67;5.27;;;;;;;9.98;43.22;103030.66;5050730;28;20024;-74
2024/01/28 05:48:01;;;;;;;11.37;4.97;;;;;;;9.75;44.06;103032.63;5049360;28;20036;-76
2024/01/28 05:50:32;;;;;;;13.77;6.13;;;;;;;9.74;44.46;103034.38;5049423;28;20109;-76
2024/01/28 05:52:57;;;;;;;10.03;5.20;;;;;;;9.65;44.06;103040.19;5049445;28;20028;-75
2024/01/28 05:55:22;;;;;;;16.80;5.60;;;;;;;10.41;42.65;103033.56;5049027;28;20025;-75
2024/01/28 05:57:48;;;;;;;13.77;6.13;;;;;;;10.14;42.73;103037.22;5049504;28;20131;-75
2024/01/28 06:00:14;;;;;;;14.10;6.10;;;;;;;9.50;43.38;103043.25;5049012;28;20033;-75
2024/01/28 06:02:40;;;;;;;16.07;5.73;;;;;;;10.16;42.70;103035.50;5047879;28;20173;-75
2024/01/28 06:05:05;;;;;;;11.80;5.47;;;;;;;9.79;43.17;103044.94;5049352;28;20116;-75
2024/01/28 06:07:31;;;;;;;10.27;4.93;;;;;;;9.66;43.84;103049.81;5049946;28;20128;-75
2024/01/28 06:09:56;;;;;;;16.30;6.13;;;;;;;9.64;44.11;103041.06;5048594;28;20079;-75
2024/01/28 06:12:22;;;;;;;11.13;5.57;;;;;;;9.33;44.75;103040.13;5048958;28;20028;-75
2024/01/28 06:14:47;;;;;;;11.67;5.50;;;;;;;9.27;44.39;103042.56;5048194;28;20021;-75
2024/01/28 06:17:14;;;;;;;22.20;6.80;;;;;;;9.58;44.14;103034.78;5049576;28;20056;-75
2024/01/28 06:19:40;;;;;;;13.40;5.37;;;;;;;10.11;43.01;103037.09;5048837;28;20040;-75
2024/01/28 06:22:05;;;;;;;15.23;5.63;;;;;;;9.11;44.31;103033.38;5050360;28;20017;-75
2024/01/28 06:24:32;;;;;;;13.27;5.90;;;;;;;9.70;43.53;103037.75;5049402;28;20025;-75
2024/01/28 06:26:57;;;;;;;13.97;5.80;;;;;;;10.31;41.84;103030.69;5049063;28;20488;-75
2024/01/28 06:29:23;;;;;;;13.27;6.50;;;;;;;9.95;42.81;103027.97;5050430;28;20036;-75
2024/01/28 06:31:50;;;;;;;10.23;4.50;;;;;;;9.75;42.98;103020.44;5048838;28;20483;-75
2024/01/28 06:34:15;;;;;;;10.93;5.17;;;;;;;9.34;43.83;103015.81;5050670;28;20020;-75
2024/01/28 06:36:40;;;;;;;10.37;5.30;;;;;;;10.29;42.28;103010.56;5049711;28;20392;-75
2024/01/28 06:39:06;;;;;;;14.10;6.13;;;;;;;9.85;42.84;103019.00;5048227;28;20091;-75
2024/01/28 06:41:31;;;;;;;9.40;5.30;;;;;;;10.38;41.90;103004.75;5048995;28;20047;-75
2024/01/28 06:43:57;;;;;;;12.80;5.40;;;;;;;10.17;42.00;103000.69;5052420;28;20029;-75
2024/01/28 06:46:22;;;;;;;19.13;6.87;;;;;;;10.39;41.73;103007.41;5051063;28;20433;-75
2024/01/28 06:48:47;;;;;;;15.20;5.60;;;;;;;10.29;42.05;103006.25;5053261;28;20517;-75
2024/01/28 06:51:13;;;;;;;12.17;5.03;;;;;;;10.43;41.87;103005.75;5050481;28;20065;-75
2024/01/28 06:53:38;;;;;;;21.70;6.40;;;;;;;10.78;40.75;103000.47;5051778;28;20025;-75
2024/01/28 06:56:04;;;;;;;14.60;5.60;;;;;;;10.50;41.59;102994.59;5053996;28;20492;-75
2024/01/28 06:58:29;;;;;;;9.17;5.17;;;;;;;11.10;39.82;103003.84;5051253;28;20525;-75
2024/01/28 07:00:54;;;;;;;14.77;5.17;;;;;;;10.45;40.65;103010.16;5053098;28;20057;-75
2024/01/28 07:03:20;;;;;;;15.83;5.87;;;;;;;10.17;42.13;102993.72;5049053;28;20488;-75
2024/01/28 07:05:46;;;;;;;8.27;4.60;;;;;;;9.94;42.26;103003.56;5031862;28;20095;-75
2024/01/28 07:08:11;;;;;;;15.13;4.90;;;;;;;9.71;42.75;103004.66;5035642;28;20068;-75
2024/01/28 07:10:37;;;;;;;14.93;5.77;;;;;;;10.24;41.09;102996.53;5051139;28;20033;-75
2024/01/28 07:13:03;;;;;;;9.40;4.50;;;;;;;9.86;41.63;102999.84;5048366;28;20442;-75
2024/01/28 07:15:31;;;;;;;10.77;5.07;;;;;;;10.48;40.97;102996.28;5046519;28;20063;-76
2024/01/28 07:17:57;;;;;;;7.97;4.73;;;;;;;10.82;40.39;103002.31;5052284;28;20075;-75
2024/01/28 07:20:22;;;;;;;22.03;4.67;;;;;;;10.30;41.00;102997.56;5051519;28;20447;-75
2024/01/28 07:22:47;;;;;;;10.93;5.10;;;;;;;9.56;42.03;102995.56;5051952;28;20366;-75
2024/01/28 07:25:14;;;;;;;8.43;5.00;;;;;;;10.34;40.74;102994.22;5048908;28;20096;-75
2024/01/28 07:27:39;;;;;;;13.47;4.97;;;;;;;9.66;42.52;103000.19;5041284;28;20024;-75
2024/01/28 07:30:06;;;;;;;14.27;5.60;;;;;;;9.85;42.17;103003.34;5051882;28;20028;-75
2024/01/28 07:32:31;;;;;;;9.67;4.80;;;;;;;9.56;43.01;102999.88;5053030;28;20025;-75
2024/01/28 07:34:57;;;;;;;7.43;4.67;;;;;;;9.03;43.61;102994.84;5050035;28;20075;-75
2024/01/28 07:37:22;;;;;;;8.20;4.43;;;;;;;9.24;43.47;102990.25;5053401;28;20111;-75
2024/01/28 07:39:47;;;;;;;6.10;3.83;;;;;;;8.97;44.32;102998.13;5050981;28;20397;-74
2024/01/28 07:42:13;;;;;;;12.33;5.00;;;;;;;9.75;42.71;102988.22;5047318;28;20116;-75
2024/01/28 07:44:39;;;;;;;10.10;5.00;;;;;;;9.91;42.66;102986.94;5036474;28;20111;-75
2024/01/28 07:47:04;;;;;;;11.60;4.83;;;;;;;10.36;41.36;102981.19;5051498;28;20143;-75
2024/01/28 07:49:30;;;;;;;10.87;5.00;;;;;;;9.54;43.38;102981.56;5049028;28;20064;-75
2024/01/28 07:51:55;;;;;;;13.43;4.83;;;;;;;9.50;43.15;102979.72;5052858;28;20107;-75
2024/01/28 07:54:21;;;;;;;14.47;5.53;;;;;;;9.67;42.62;102975.84;5052507;28;20032;-75
2024/01/28 07:56:46;;;;;;;8.93;4.43;;;;;;;9.45;43.19;102970.84;5051281;28;20021;-75
2024/01/28 07:59:12;;;;;;;11.13;5.67;;;;;;;10.43;41.52;102956.94;5051923;28;20531;-74
2024/01/28 08:01:37;;;;;;;15.13;4.77;;;;;;;10.26;41.58;102947.75;5030760;28;20029;-75
2024/01/28 08:04:03;;;;;;;12.37;4.53;;;;;;;10.23;41.64;102948.56;5047057;28;20389;-75
2024/01/28 08:06:31;;;;;;;17.70;6.07;;;;;;;10.26;41.36;102953.91;5051081;28;20017;-75
2024/01/28 08:08:57;;;;;;;9.57;4.27;;;;;;;9.95;42.24;102947.88;5050299;28;20420;-75
2024/01/28 08:11:23;;;;;;;12.87;5.33;;;;;;;9.12;43.78;102950.75;5052519;28;20151;-75
2024/01/28 08:13:48;;;;;;;9.37;4.17;;;;;;;9.99;42.80;102944.50;5050951;28;20539;-75
2024/01/28 08:16:14;;;;;;;10.87;5.10;;;;;;;10.30;41.65;102945.28;5049101;28;20032;-75
2024/01/28 08:18:40;;;;;;;12.07;4.83;;;;;;;10.51;41.38;102944.94;5046097;28;20037;-76
2024/01/28 08:21:05;;;;;;;15.10;5.37;;;;;;;10.16;41.90;102947.53;5048629;28;20017;-75
2024/01/28 08:23:31;;;;;;;12.63;6.03;;;;;;;10.37;41.42;102945.44;5049276;28;20056;-75
2024/01/28 08:25:56;;;;;;;9.70;4.70;;;;;;;9.78;42.56;102944.81;5050754;28;20079;-75
2024/01/28 08:28:22;;;;;;;7.73;3.97;;;;;;;10.08;42.39;102948.19;5051091;28;20167;-75
2024/01/28 08:30:48;;;;;;;11.07;4.40;;;;;;;10.41;41.62;102947.28;5050558;28;20495;-75
2024/01/28 08:33:13;;;;;;;11.03;4.60;;;;;;;10.06;41.95;102947.28;5052022;28;20035;-75
2024/01/28 08:35:39;;;;;;;7.87;4.63;;;;;;;9.98;41.61;102942.72;5049861;28;20502;-75
2024/01/28 08:38:04;;;;;;;8.30;4.17;;;;;;;10.76;41.26;102944.66;5048738;28;20041;-75
2024/01/28 08:40:30;;;;;;;15.53;5.80;;;;;;;10.61;40.85;102951.28;5048198;28;20052;-75
2024/01/28 08:42:56;;;;;;;16.00;4.77;;;;;;;10.68;41.24;102950.56;5049102;28;20421;-74
2024/01/28 08:45:22;;;;;;;9.33;5.10;;;;;;;10.44;41.30;102942.13;5050559;28;20024;-75
2024/01/28 08:47:47;;;;;;;12.43;4.80;;;;;;;10.72;41.41;102942.81;5050170;28;20472;-75
2024/01/28 08:50:13;;;;;;;13.90;5.20;;;;;;;11.09;40.55;102947.13;5052515;28;20468;-75
2024/01/28 08:52:38;;;;;;;13.13;4.93;;;;;;;11.09;40.30;102948.88;5049773;28;20056;-75
2024/01/28 08:55:04;;;;;;;17.07;5.10;;;;;;;11.23;40.12;102941.31;5048272;28;20021;-75
2024/01/28 08:57:31;;;;;;;11.73;4.50;;;;;;;11.08;40.45;102940.09;5051226;28;20047;-74
2024/01/28 08:59:56;;;;;;;8.70;4.30;;;;;;;10.07;42.08;102938.56;5049708;28;20020;-74
2024/01/28 09:02:21;;;;;;;8.07;4.67;;;;;;;11.22;40.58;102932.53;5049214;28;20028;-75
2024/01/28 09:04:47;;;;;;;8.17;4.33;;;;;;;9.71;42.62;102957.66;5044798;28;20031;-74
2024/01/28 09:07:12;;;;;;;10.17;4.50;;;;;;;10.49;41.53;102941.41;5038994;28;20408;-75
2024/01/28 09:09:38;;;;;;;12.63;4.50;;;;;;;11.10;40.73;102930.56;5045160;28;20029;-75
2024/01/28 09:12:04;;;;;;;9.80;4.93;;;;;;;10.07;42.00;102926.41;5040689;28;20108;-74
2024/01/28 09:14:30;;;;;;;12.37;4.73;;;;;;;10.69;41.15;102928.78;5048638;28;20045;-75
2024/01/28 09:16:55;;;;;;;8.33;4.43;;;;;;;10.52;41.94;102933.66;5049101;28;20056;-75
2024/01/28 09:19:20;;;;;;;11.03;4.33;;;;;;;10.60;41.49;102923.34;5048426;28;20032;-75
2024/01/28 09:21:46;;;;;;;6.03;3.77;;;;;;;10.38;41.53;102926.31;5047333;28;20028;-75
2024/01/28 09:24:11;;;;;;;7.63;3.80;;;;;;;10.71;41.54;102920.09;5047486;28;20249;-75
2024/01/28 09:26:37;;;;;;;6.47;4.10;;;;;;;9.91;42.09;102925.13;5048200;28;20028;-75
2024/01/28 09:29:02;;;;;;;10.83;4.43;;;;;;;10.45;41.90;102915.16;5051024;28;20458;-75
2024/01/28 09:31:33;;;;;;;13.80;4.73;;;;;;;11.14;40.69;102914.09;5051284;28;20099;-75
2024/01/28 09:33:58;;;;;;;7.80;4.03;;;;;;;11.45;39.89;102911.19;5049018;28;20032;-75
2024/01/28 09:36:23;;;;;;;12.23;4.77;;;;;;;11.38;40.15;102916.28;5049321;28;20033;-75
2024/01/28 09:38:49;;;;;;;8.70;4.30;;;;;;;11.38;39.89;102916.28;5049325;28;20074;-76
2024/01/28 09:41:24;;;;;;;13.13;4.67;;;;;;;10.98;40.44;102915.47;5049251;28;20059;-75
2024/01/28 09:43:50;;;;;;;12.53;4.17;;;;;;;10.92;41.26;102915.38;5049252;28;20489;-75
2024/01/28 09:46:16;;;;;;;11.73;4.80;;;;;;;10.97;40.94;102898.00;5049341;28;20063;-75
2024/01/28 09:48:44;;;;;;;10.27;3.60;;;;;;;11.70;39.50;102902.94;5048194;28;20388;-75
2024/01/28 09:51:11;;;;;;;10.77;4.00;;;;;;;11.14;40.23;102900.09;5049513;28;20056;-75
2024/01/28 09:53:36;;;;;;;9.13;4.47;;;;;;;12.17;37.95;102896.78;5049027;28;20021;-76
2024/01/28 09:56:03;;;;;;;6.93;3.57;;;;;;;12.10;38.10;102891.41;5048578;28;20088;-75
2024/01/28 09:58:29;;;;;;;11.27;3.67;;;;;;;11.91;37.91;102901.56;5049585;28;20086;-73
2024/01/28 10:00:55;;;;;;;9.60;3.57;;;;;;;12.11;37.82;102899.28;5049667;28;20020;-75
2024/01/28 10:03:21;;;;;;;7.97;3.77;;;;;;;12.18;37.48;102900.28;5048812;28;20082;-76
2024/01/28 10:05:46;;;;;;;7.00;4.43;;;;;;;12.49;37.40;102895.53;5049675;28;20104;-76
2024/01/28 10:08:14;;;;;;;10.23;4.10;;;;;;;12.80;37.09;102896.81;5049981;28;20112;-75
2024/01/28 10:10:40;;;;;;;5.67;3.63;;;;;;;13.42;36.48;102887.09;5050362;28;20033;-75
2024/01/28 10:13:06;;;;;;;6.43;3.77;;;;;;;13.43;36.23;102877.50;5050615;28;20112;-75
2024/01/28 10:15:31;;;;;;;10.43;4.17;;;;;;;13.78;36.00;102890.97;5049321;28;20092;-75
2024/01/28 10:17:57;;;;;;;7.30;3.60;;;;;;;14.79;34.50;102879.44;5049989;28;20051;-76
2024/01/28 10:20:24;;;;;;;4.60;2.80;;;;;;;14.67;33.79;102880.28;5051065;28;20033;-75
2024/01/28 10:22:53;;;;;;;9.20;3.27;;;;;;;14.63;33.54;102889.03;5049037;28;20103;-76
2024/01/28 10:25:21;;;;;;;7.63;3.60;;;;;;;14.80;33.76;102885.59;5049402;28;20046;-76
2024/01/28 10:27:48;;;;;;;5.10;2.87;;;;;;;15.51;32.64;102881.44;5049891;28;20025;-75
2024/01/28 10:30:15;;;;;;;7.17;3.10;;;;;;;14.51;33.40;102883.66;5050232;28;20036;-76
2024/01/28 10:32:42;;;;;;;7.90;3.17;;;;;;;14.51;33.91;102873.13;5049670;28;20025;-75
2024/01/28 10:35:16;;;;;;;4.70;3.13;;;;;;;15.03;33.08;102878.69;5050360;28;20029;-76
2024/01/28 10:37:41;;;;;;;5.00;3.33;;;;;;;15.02;33.13;102871.66;5047753;28;20025;-76
2024/01/28 10:40:08;;;;;;;11.87;3.53;;;;;;;15.05;33.85;102874.28;5050805;28;20392;-76
2024/01/28 10:42:41;;;;;;;9.57;2.93;;;;;;;15.86;32.80;102858.66;5049900;28;20063;-76
2024/01/28 10:45:11;;;;;;;6.83;2.70;;;;;;;16.22;32.69;102859.50;5048405;28;20029;-76
2024/01/28 10:47:44;;;;;;;9.27;3.57;;;;;;;15.58;33.37;102858.63;5049703;28;20035;-76
2024/01/28 10:50:13;;;;;;;4.10;2.15;;;;;;;15.82;32.92;102862.19;5048287;28;20049;-76
2024/01/28 10:52:39;;;;;;;7.23;3.33;;;;;;;16.31;32.00;102867.41;5047867;28;20033;-75
2024/01/28 10:55:06;;;;;;;6.70;3.47;;;;;;;16.14;32.32;102861.28;5049895;28;20079;-76
2024/01/28 10:57:32;;;;;;;4.57;2.50;;;;;;;15.51;33.60;102851.56;5047583;28;20400;-76
2024/01/28 10:59:59;;;;;;;4.77;2.77;;;;;;;16.62;31.87;102855.03;5050607;28;20028;-76
2024/01/28 11:02:26;;;;;;;11.23;2.60;;;;;;;16.93;31.58;102836.44;5050086;28;20440;-76
2024/01/28 11:04:52;;;;;;;4.37;2.93;;;;;;;17.21;31.65;102838.06;5049056;28;20028;-76
2024/01/28 11:07:19;;;;;;;5.57;2.90;;;;;;;16.34;32.16;102838.38;5048977;28;20021;-76
2024/01/28 11:09:46;;;;;;;10.37;2.37;;;;;;;16.55;31.87;102829.50;5048544;28;20392;-74
2024/01/28 11:12:12;;;;;;;5.13;3.20;;;;;;;17.28;30.89;102824.81;5049241;28;20029;-73
2024/01/28 11:14:38;;;;;;;3.20;2.20;;;;;;;16.78;31.57;102824.16;5049039;28;20024;-73
2024/01/28 11:17:03;;;;;;;5.27;2.80;;;;;;;16.55;31.87;102820.72;5049755;28;20578;-73